createdAt,value
2023-09-14T00:02:16.711Z,77.65
2023-09-14T00:05:20.802Z,77.47
2023-09-14T00:08:24.779Z,77.51
2023-09-14T00:11:28.723Z,77.49
2023-09-14T00:14:33.488Z,77.56
2023-09-14T00:17:37.421Z,77.77
2023-09-14T00:20:41.552Z,77.74
2023-09-14T00:23:45.773Z,77.72
2023-09-14T00:26:50.668Z,77.75
2023-09-14T00:29:55.098Z,77.72
2023-09-14T00:32:59.061Z,77.64
2023-09-14T00:36:03.657Z,77.74
2023-09-14T00:39:11.254Z,77.68
2023-09-14T00:42:15.241Z,77.89
2023-09-14T00:45:21.612Z,77.73
2023-09-14T00:48:25.960Z,77.79
2023-09-14T00:51:30.743Z,77.84
2023-09-14T00:54:34.918Z,78.03
2023-09-14T00:57:39.647Z,77.94
2023-09-14T01:00:45.907Z,77.87
2023-09-14T01:03:50.489Z,77.94
2023-09-14T01:06:56.408Z,78.14
2023-09-14T01:10:01.152Z,78.10
2023-09-14T01:13:05.260Z,78.22
2023-09-14T01:16:17.011Z,78.26
2023-09-14T01:19:48.694Z,78.41
2023-09-14T01:23:04.208Z,78.38
2023-09-14T01:26:09.658Z,78.45
2023-09-14T01:29:13.640Z,78.52
2023-09-14T01:32:18.015Z,78.51
2023-09-14T01:35:22.243Z,78.49
2023-09-14T01:38:26.700Z,78.41
2023-09-14T01:41:32.407Z,78.43
2023-09-14T01:44:37.652Z,78.53
2023-09-14T01:47:42.712Z,78.53
2023-09-14T01:50:47.305Z,78.50
2023-09-14T01:53:51.732Z,78.59
2023-09-14T01:56:55.840Z,78.58
2023-09-14T02:00:00.032Z,78.53
2023-09-14T02:03:04.488Z,78.55
2023-09-14T02:06:08.593Z,78.66
2023-09-14T02:09:12.604Z,78.68
2023-09-14T02:12:16.712Z,78.55
2023-09-14T02:15:20.644Z,78.62
2023-09-14T02:18:24.753Z,78.72
2023-09-14T02:21:28.771Z,78.78
2023-09-14T02:24:32.871Z,78.90
2023-09-14T02:27:36.908Z,78.77
2023-09-14T02:30:41.402Z,78.76
2023-09-14T02:33:45.517Z,78.84
2023-09-14T02:36:50.131Z,78.92
2023-09-14T02:39:54.206Z,78.88
2023-09-14T02:42:59.659Z,78.77
2023-09-14T02:46:03.806Z,78.85
2023-09-14T02:49:07.921Z,78.96
2023-09-14T02:52:12.032Z,78.83
2023-09-14T02:55:16.161Z,78.73
2023-09-14T02:58:20.344Z,78.93
2023-09-14T03:01:25.787Z,78.69
2023-09-14T03:04:30.012Z,78.88
2023-09-14T03:07:34.287Z,78.80
2023-09-14T03:10:39.128Z,78.95
2023-09-14T03:13:43.156Z,78.98
2023-09-14T03:16:47.932Z,78.84
2023-09-14T03:19:54.422Z,78.86
2023-09-14T03:23:00.583Z,78.54
2023-09-14T03:26:04.647Z,78.71
2023-09-14T03:29:09.148Z,78.55
2023-09-14T03:32:13.280Z,78.50
2023-09-14T03:35:17.320Z,78.74
2023-09-14T03:38:22.220Z,78.75
2023-09-14T03:41:26.308Z,78.79
2023-09-14T03:44:30.336Z,78.79
2023-09-14T03:47:34.437Z,78.67
2023-09-14T03:50:38.389Z,78.69
2023-09-14T03:53:42.625Z,78.60
2023-09-14T03:56:46.589Z,78.54
2023-09-14T03:59:50.757Z,78.53
2023-09-14T04:02:55.244Z,78.65
2023-09-14T04:05:59.650Z,78.73
2023-09-14T04:09:05.639Z,78.83
2023-09-14T04:12:10.346Z,78.71
2023-09-14T04:15:15.002Z,78.83
2023-09-14T04:18:19.653Z,78.97
2023-09-14T04:21:23.834Z,78.87
2023-09-14T04:24:28.045Z,78.91
2023-09-14T04:27:32.393Z,78.84
2023-09-14T04:30:45.969Z,78.90
2023-09-14T04:33:50.168Z,79.10
2023-09-14T04:36:54.161Z,79.04
2023-09-14T04:39:58.346Z,79.17
2023-09-14T04:43:02.451Z,79.16
2023-09-14T04:46:06.810Z,79.23
2023-09-14T04:49:14.073Z,78.97
2023-09-14T04:52:18.264Z,79.00
2023-09-14T04:55:22.957Z,79.13
2023-09-14T04:58:27.206Z,79.09
2023-09-14T05:01:32.175Z,78.96
2023-09-14T05:04:36.900Z,79.13
2023-09-14T05:07:44.239Z,79.00
2023-09-14T05:10:52.679Z,79.10
2023-09-14T05:13:57.999Z,79.23
2023-09-14T05:17:03.523Z,79.17
2023-09-14T05:20:09.998Z,79.11
2023-09-14T05:23:15.086Z,79.07
2023-09-14T05:26:19.293Z,79.08
2023-09-14T05:29:23.385Z,79.02
2023-09-14T05:32:27.524Z,78.93
2023-09-14T05:35:33.065Z,79.12
2023-09-14T05:38:37.214Z,78.92
2023-09-14T05:41:41.743Z,78.80
2023-09-14T05:44:45.712Z,78.74
2023-09-14T05:47:50.148Z,78.82
2023-09-14T05:50:54.179Z,78.70
2023-09-14T05:53:58.327Z,78.74
2023-09-14T05:57:04.281Z,78.74
2023-09-14T06:00:14.575Z,78.53
2023-09-14T06:03:23.609Z,78.54
2023-09-14T06:06:27.919Z,78.62
2023-09-14T06:09:31.970Z,78.59
2023-09-14T06:12:36.456Z,78.65
2023-09-14T06:15:40.510Z,78.63
2023-09-14T06:18:45.127Z,78.63
2023-09-14T06:21:49.513Z,78.70
2023-09-14T06:24:53.537Z,79.06
2023-09-14T06:27:57.657Z,79.15
2023-09-14T06:31:01.829Z,79.07
2023-09-14T06:34:06.254Z,78.90
2023-09-14T06:37:10.310Z,78.78
2023-09-14T06:40:16.123Z,78.73
2023-09-14T06:43:20.348Z,78.78
2023-09-14T06:46:24.531Z,78.82
2023-09-14T06:49:28.560Z,78.46
2023-09-14T06:52:34.034Z,78.40
2023-09-14T06:55:39.739Z,78.26
2023-09-14T06:58:44.388Z,78.09
2023-09-14T07:01:48.744Z,77.74
2023-09-14T07:04:52.731Z,78.01
2023-09-14T07:07:56.905Z,77.91
2023-09-14T07:11:01.339Z,77.79
2023-09-14T07:14:05.551Z,77.84
2023-09-14T07:17:10.934Z,77.57
2023-09-14T07:20:15.110Z,76.97
2023-09-14T07:23:19.648Z,76.71
2023-09-14T07:26:23.682Z,76.63
2023-09-14T07:29:29.700Z,76.58
2023-09-14T07:32:34.619Z,76.37
2023-09-14T07:35:41.070Z,75.84
2023-09-14T07:38:45.690Z,75.87
2023-09-14T07:41:56.579Z,75.74
2023-09-14T07:45:00.771Z,75.36
2023-09-14T07:48:06.367Z,75.26
2023-09-14T07:51:10.380Z,75.02
2023-09-14T07:54:14.959Z,74.59
2023-09-14T07:57:18.973Z,74.39
2023-09-14T08:00:22.927Z,74.26
2023-09-14T08:03:29.014Z,73.93
2023-09-14T08:06:34.911Z,73.57
2023-09-14T08:09:41.520Z,73.62
2023-09-14T08:12:45.609Z,72.90
2023-09-14T08:15:49.782Z,72.90
2023-09-14T08:18:53.915Z,71.89
2023-09-14T08:21:58.881Z,71.31
2023-09-14T08:25:04.798Z,71.45
2023-09-14T08:28:08.920Z,71.47
2023-09-14T08:31:13.208Z,71.52
2023-09-14T08:34:17.625Z,71.00
2023-09-14T08:37:21.612Z,70.13
2023-09-14T08:40:26.118Z,70.18
2023-09-14T08:43:30.592Z,69.85
2023-09-14T08:46:36.250Z,69.30
2023-09-14T08:49:43.003Z,69.20
2023-09-14T08:52:48.066Z,69.23
2023-09-14T08:55:52.505Z,68.53
2023-09-14T08:58:57.317Z,68.65
2023-09-14T09:02:03.200Z,68.64
2023-09-14T09:05:07.976Z,67.93
2023-09-14T09:08:12.567Z,67.60
2023-09-14T09:11:16.676Z,67.37
2023-09-14T09:14:20.672Z,67.37
2023-09-14T09:17:24.821Z,67.47
2023-09-14T09:20:29.221Z,66.75
2023-09-14T09:23:35.223Z,67.25
2023-09-14T09:26:41.627Z,66.96
2023-09-14T09:29:45.832Z,66.77
2023-09-14T09:32:56.668Z,66.45
2023-09-14T09:36:02.319Z,65.89
2023-09-14T09:39:07.716Z,65.43
2023-09-14T09:42:14.477Z,64.79
2023-09-14T09:45:20.972Z,64.57
2023-09-14T09:48:28.637Z,63.96
2023-09-14T09:51:34.254Z,64.69
2023-09-14T09:54:38.259Z,64.25
2023-09-14T09:57:51.157Z,63.98
2023-09-14T10:00:59.063Z,64.03
2023-09-14T10:04:09.173Z,64.33
2023-09-14T10:07:22.568Z,64.62
2023-09-14T10:10:28.162Z,64.77
2023-09-14T10:13:32.123Z,65.49
2023-09-14T10:16:40.154Z,65.01
2023-09-14T10:19:49.071Z,64.81
2023-09-14T10:22:53.939Z,65.29
2023-09-14T10:25:59.007Z,64.31
2023-09-14T10:29:05.657Z,63.78
2023-09-14T10:32:12.787Z,63.87
2023-09-14T10:35:19.256Z,63.97
2023-09-14T10:38:24.562Z,64.37
2023-09-14T10:41:29.178Z,63.72
2023-09-14T10:44:34.110Z,63.62
2023-09-14T10:47:41.983Z,63.61
2023-09-14T10:50:46.575Z,64.74
2023-09-14T10:53:50.933Z,64.68
2023-09-14T10:56:58.432Z,64.86
2023-09-14T11:00:20.408Z,64.48
2023-09-14T11:03:27.517Z,64.02
2023-09-14T11:06:53.918Z,63.83
2023-09-14T11:10:08.841Z,63.71
2023-09-14T11:13:22.669Z,64.12
2023-09-14T11:16:42.760Z,64.43
2023-09-14T11:19:54.909Z,64.81
2023-09-14T11:23:04.399Z,64.53
2023-09-14T11:26:19.178Z,64.80
2023-09-14T11:29:29.092Z,64.71
2023-09-14T11:32:35.717Z,64.69
2023-09-14T11:35:47.201Z,64.38
2023-09-14T11:38:53.210Z,64.56
2023-09-14T11:42:05.948Z,64.21
2023-09-14T11:51:29.360Z,63.48
2023-09-14T11:54:33.816Z,63.68
2023-09-14T11:57:39.250Z,63.97
2023-09-14T12:00:47.267Z,64.48
2023-09-14T12:03:51.952Z,64.41
2023-09-14T12:06:57.169Z,64.48
2023-09-14T12:10:02.355Z,64.70
2023-09-14T12:13:14.897Z,64.74
2023-09-14T12:16:29.111Z,63.50
2023-09-14T12:19:33.385Z,62.80
2023-09-14T12:22:37.410Z,62.76
2023-09-14T12:25:42.894Z,62.73
2023-09-14T12:28:52.841Z,62.34
2023-09-14T12:31:56.878Z,62.26
2023-09-14T12:35:00.911Z,61.84
2023-09-14T12:38:05.809Z,61.64
2023-09-14T12:41:12.390Z,61.69
2023-09-14T12:44:18.167Z,62.77
2023-09-14T12:47:22.575Z,62.16
2023-09-14T12:50:31.144Z,62.24
2023-09-14T12:53:41.668Z,62.27
2023-09-14T12:56:46.094Z,62.49
2023-09-14T13:00:08.571Z,62.40
2023-09-14T13:03:15.560Z,62.74
2023-09-14T13:06:20.892Z,62.38
2023-09-14T13:09:25.034Z,61.87
2023-09-14T13:12:29.098Z,61.89
2023-09-14T13:15:34.939Z,62.27
2023-09-14T13:18:39.066Z,62.05
2023-09-14T13:21:44.595Z,61.79
2023-09-14T13:24:48.581Z,62.02
2023-09-14T13:27:53.774Z,62.30
2023-09-14T13:30:58.709Z,62.55
2023-09-14T13:34:03.226Z,62.13
2023-09-14T13:37:07.292Z,61.29
2023-09-14T13:40:24.714Z,61.52
2023-09-14T13:43:28.670Z,61.05
2023-09-14T13:46:32.697Z,59.85
2023-09-14T13:49:36.676Z,58.70
2023-09-14T13:52:40.755Z,58.33
2023-09-14T13:55:45.029Z,58.16
2023-09-14T13:58:49.242Z,58.15
2023-09-14T14:01:54.046Z,58.50
2023-09-14T14:04:58.560Z,58.43
2023-09-14T14:08:05.276Z,58.83
2023-09-14T14:11:09.234Z,59.36
2023-09-14T14:14:19.279Z,59.48
2023-09-14T14:17:29.315Z,59.77
2023-09-14T14:20:33.507Z,60.18
2023-09-14T14:23:37.529Z,60.32
2023-09-14T14:26:44.252Z,60.33
2023-09-14T14:29:49.260Z,60.43
2023-09-14T14:32:53.286Z,59.86
2023-09-14T14:35:57.274Z,59.91
2023-09-14T14:39:01.287Z,60.22
2023-09-14T14:42:05.890Z,60.34
2023-09-14T14:45:10.688Z,60.99
2023-09-14T14:48:14.783Z,61.09
2023-09-14T14:51:18.855Z,61.09
2023-09-14T14:54:22.828Z,61.14
2023-09-14T14:57:26.822Z,61.05
2023-09-14T15:00:30.930Z,61.29
2023-09-14T15:03:34.974Z,60.96
2023-09-14T15:06:39.153Z,61.12
2023-09-14T15:09:43.365Z,61.42
2023-09-14T15:12:48.308Z,61.35
2023-09-14T15:15:52.590Z,61.69
2023-09-14T15:18:56.691Z,61.81
2023-09-14T15:22:01.238Z,62.01
2023-09-14T15:25:05.804Z,62.34
2023-09-14T15:28:10.023Z,62.36
2023-09-14T15:31:18.710Z,62.49
2023-09-14T15:34:22.738Z,62.91
2023-09-14T15:37:27.156Z,62.79
2023-09-14T15:40:32.284Z,62.70
2023-09-14T15:43:36.259Z,62.53
2023-09-14T15:46:40.465Z,62.62
2023-09-14T15:49:45.009Z,62.71
2023-09-14T15:52:49.220Z,62.90
2023-09-14T15:55:54.583Z,62.92
2023-09-14T15:58:58.654Z,63.09
2023-09-14T16:02:03.402Z,63.04
2023-09-14T16:05:09.496Z,63.27
2023-09-14T16:08:13.933Z,63.40
2023-09-14T16:11:18.499Z,63.40
2023-09-14T16:14:23.568Z,63.51
2023-09-14T16:17:27.630Z,63.81
2023-09-14T16:20:32.584Z,63.98
2023-09-14T16:23:36.686Z,64.09
2023-09-14T16:26:40.693Z,64.22
2023-09-14T16:29:44.628Z,64.58
2023-09-14T16:32:50.958Z,64.73
2023-09-14T16:35:58.315Z,64.75
2023-09-14T16:39:08.048Z,65.14
2023-09-14T16:42:12.221Z,65.16
2023-09-14T16:45:16.461Z,65.26
2023-09-14T16:48:20.658Z,65.50
2023-09-14T16:51:25.916Z,65.61
2023-09-14T16:54:30.341Z,65.90
2023-09-14T16:57:34.457Z,66.09
2023-09-14T17:00:38.507Z,66.22
2023-09-14T17:03:42.624Z,66.37
2023-09-14T17:06:48.215Z,66.75
2023-09-14T17:09:52.429Z,66.85
2023-09-14T17:12:56.622Z,66.90
2023-09-14T17:16:00.685Z,67.16
2023-09-14T17:19:06.688Z,67.30
2023-09-14T17:22:12.667Z,67.35
2023-09-14T17:25:16.739Z,67.58
2023-09-14T17:28:23.172Z,67.69
2023-09-14T17:31:27.458Z,67.92
2023-09-14T17:34:32.090Z,67.97
2023-09-14T17:37:36.449Z,68.02
2023-09-14T17:40:40.390Z,68.28
2023-09-14T17:43:44.731Z,68.35
2023-09-14T17:46:48.791Z,68.37
2023-09-14T17:49:52.808Z,68.58
2023-09-14T17:52:56.776Z,68.58
2023-09-14T17:56:04.190Z,68.65
2023-09-14T17:59:08.360Z,68.88
2023-09-14T18:02:12.328Z,68.86
2023-09-14T18:05:16.504Z,68.90
2023-09-14T18:08:21.445Z,69.25
2023-09-14T18:11:25.913Z,69.31
2023-09-14T18:14:29.866Z,69.16
2023-09-14T18:17:35.658Z,69.27
2023-09-14T18:20:39.884Z,69.30
2023-09-14T18:23:44.050Z,69.21
2023-09-14T18:26:49.292Z,69.32
2023-09-14T18:29:53.230Z,69.31
2023-09-14T18:32:59.671Z,69.68
2023-09-14T18:36:04.360Z,69.58
2023-09-14T18:39:08.390Z,69.68
2023-09-14T18:42:12.387Z,69.84
2023-09-14T18:45:16.781Z,69.88
2023-09-14T18:48:21.284Z,70.13
2023-09-14T18:51:25.268Z,70.39
2023-09-14T18:54:29.243Z,70.62
2023-09-14T18:57:33.186Z,70.53
2023-09-14T19:00:37.454Z,70.54
2023-09-14T19:03:41.472Z,70.66
2023-09-14T19:06:46.051Z,70.69
2023-09-14T19:09:50.659Z,70.71
2023-09-14T19:12:54.626Z,70.61
2023-09-14T19:15:58.646Z,70.63
2023-09-14T19:19:02.871Z,70.86
2023-09-14T19:22:07.004Z,70.76
2023-09-14T19:25:11.147Z,70.55
2023-09-14T19:28:15.325Z,70.43
2023-09-14T19:31:20.870Z,70.49
2023-09-14T19:34:24.857Z,70.51
2023-09-14T19:37:28.814Z,70.46
2023-09-14T19:40:33.194Z,70.48
2023-09-14T19:43:37.031Z,70.18
2023-09-14T19:46:41.918Z,70.04
2023-09-14T19:49:46.068Z,69.64
2023-09-14T19:52:50.101Z,69.74
2023-09-14T19:55:54.560Z,69.31
2023-09-14T19:58:58.584Z,69.38
2023-09-14T20:02:02.700Z,69.32
2023-09-14T20:05:07.017Z,69.53
2023-09-14T20:08:10.994Z,69.53
2023-09-14T20:11:15.301Z,69.67
2023-09-14T20:14:19.937Z,69.64
2023-09-14T20:17:24.029Z,69.57
2023-09-14T20:20:29.095Z,69.16
2023-09-14T20:23:33.110Z,68.94
2023-09-14T20:26:38.418Z,69.18
2023-09-14T20:29:42.422Z,68.49
2023-09-14T20:32:46.466Z,68.28
2023-09-14T20:35:50.518Z,68.46
2023-09-14T20:38:55.362Z,68.36
2023-09-14T20:42:00.867Z,68.21
2023-09-14T20:45:07.377Z,68.35
2023-09-14T20:48:14.324Z,68.60
2023-09-14T20:51:18.785Z,68.74
2023-09-14T20:54:22.826Z,68.45
2023-09-14T20:57:26.893Z,68.65
2023-09-14T21:00:34.656Z,68.86
2023-09-14T21:03:39.093Z,68.61
2023-09-14T21:06:43.804Z,68.62
2023-09-14T21:09:47.828Z,68.22
2023-09-14T21:12:51.899Z,67.77
2023-09-14T21:15:55.973Z,67.96
2023-09-14T21:19:00.189Z,67.94
2023-09-14T21:22:04.621Z,67.35
2023-09-14T21:25:08.829Z,67.11
2023-09-14T21:28:12.884Z,66.89
2023-09-14T21:31:17.447Z,66.86
2023-09-14T21:34:21.457Z,66.68
2023-09-14T21:37:25.411Z,66.45
2023-09-14T21:40:31.648Z,66.28
2023-09-14T21:43:38.114Z,66.22
2023-09-14T21:46:42.154Z,66.01
2023-09-14T21:49:46.455Z,65.80
2023-09-14T21:52:50.563Z,65.84
2023-09-14T21:55:54.535Z,65.78
2023-09-14T21:58:58.474Z,65.74
2023-09-14T22:02:04.218Z,66.09
2023-09-14T22:05:08.801Z,66.61
2023-09-14T22:08:12.790Z,66.50
2023-09-14T22:11:16.690Z,66.63
2023-09-14T22:14:21.669Z,66.64
2023-09-14T22:17:25.769Z,66.72
2023-09-14T22:20:31.336Z,66.37
2023-09-14T22:23:35.255Z,66.57
2023-09-14T22:26:39.594Z,66.74
2023-09-14T22:29:43.472Z,66.53
2023-09-14T22:32:49.146Z,66.69
2023-09-14T22:35:54.193Z,66.68
2023-09-14T22:38:58.154Z,66.99
2023-09-14T22:42:02.120Z,67.23
2023-09-14T22:45:07.371Z,67.29
2023-09-14T22:48:11.377Z,67.12
2023-09-14T22:51:17.900Z,67.16
2023-09-14T22:54:22.590Z,67.10
2023-09-14T22:57:27.105Z,67.17
2023-09-14T23:00:31.075Z,66.97
2023-09-14T23:03:35.604Z,67.31
2023-09-14T23:06:39.804Z,67.29
2023-09-14T23:09:45.164Z,67.25
2023-09-14T23:12:49.497Z,67.23
2023-09-14T23:15:53.698Z,67.33
2023-09-14T23:18:57.786Z,67.54
2023-09-14T23:22:02.389Z,67.75
2023-09-14T23:25:08.611Z,67.57
2023-09-14T23:28:12.873Z,67.61
2023-09-14T23:31:18.034Z,67.72
2023-09-14T23:34:23.813Z,67.64
2023-09-14T23:37:27.803Z,67.73
2023-09-14T23:40:36.354Z,68.08
2023-09-14T23:43:43.598Z,68.33
2023-09-14T23:46:47.882Z,68.40
2023-09-14T23:49:52.168Z,68.40
2023-09-14T23:52:57.242Z,68.53
2023-09-14T23:56:01.215Z,68.10
2023-09-14T23:59:09.348Z,68.22
